Time;durP1;ratioP1;P1;durP2;ratioP2;P2;SDS_P1;SDS_P2;PMS_P1;PMS_P2;Temp;Humidity;BMP_temperature;BMP_pressure;BME280_temperature;BME280_humidity;BME280_pressure;Samples;Min_cycle;Max_cycle;Signal;HPM_P1;HPM_P2
2024/02/15 00:04:42;;;;;;;;;;;;;;;3.53;100.00;95158.63;10423117;28;19912;-76
2024/02/15 00:09:42;;;;;;;;;;;;;;;3.50;100.00;95158.22;10422350;28;20276;-76
2024/02/15 00:14:43;;;;;;;;;;;;;;;3.46;100.00;95167.66;10422166;28;19924;-75
2024/02/15 00:19:43;;;;;;;;;;;;;;;3.67;100.00;95169.09;10428941;28;20346;-75
2024/02/15 00:24:45;;;;;;;;;;;;;;;3.91;100.00;95165.59;10429796;28;19916;-76
2024/02/15 00:29:45;;;;;;;;;;;;;;;3.67;100.00;95169.09;10429411;28;20405;-76
2024/02/15 00:34:47;;;;;;;;;;;;;;;3.76;100.00;95173.13;10429966;28;20276;-75
2024/02/15 00:39:47;;;;;;;;;;;;;;;3.61;100.00;95164.69;10391584;28;19924;-76
2024/02/15 00:44:47;;;;;;;;;;;;;;;3.55;100.00;95172.47;10388637;28;20300;-74
2024/02/15 00:49:47;;;;;;;;;;;;;;;3.62;100.00;95168.97;10415160;28;20003;-76
2024/02/15 00:54:48;;;;;;;;;;;;;;;3.41;100.00;95178.94;10426680;28;20283;-76
2024/02/15 00:59:48;;;;;;;;;;;;;;;3.29;100.00;95170.84;10428834;28;20277;-77
2024/02/15 01:04:50;;;;;;;;;;;;;;;3.08;100.00;95180.00;10427985;28;19916;-76
2024/02/15 01:09:50;;;;;;;;;;;;;;;3.33;100.00;95173.91;10410079;28;19916;-77
2024/02/15 01:14:50;;;;;;;;;;;;;;;3.23;100.00;95174.38;10410113;28;20278;-76
2024/02/15 01:19:50;;;;;;;;;;;;;;;3.25;100.00;95167.00;10427339;28;20388;-76
2024/02/15 01:24:51;;;;;;;;;;;;;;;3.03;100.00;95162.06;10427355;28;19920;-76
2024/02/15 01:29:51;;;;;;;;;;;;;;;3.11;100.00;95176.91;10426573;28;20390;-77
2024/02/15 01:34:54;;;;;;;;;;;;;;;3.07;100.00;95167.78;10424170;28;19917;-77
2024/02/15 01:39:54;;;;;;;;;;;;;;;3.32;100.00;95172.28;10414704;28;19913;-77
2024/02/15 01:44:54;;;;;;;;;;;;;;;3.33;100.00;95173.91;10427744;28;19919;-75
2024/02/15 01:49:55;;;;;;;;;;;;;;;3.34;100.00;95159.59;10427494;28;19916;-75
2024/02/15 01:54:57;;;;;;;;;;;;;;;3.37;100.00;95167.94;10420630;28;19917;-77
2024/02/15 01:59:57;;;;;;;;;;;;;;;3.38;100.00;95169.56;10417430;28;19939;-77
2024/02/15 02:04:57;;;;;;;;;;;;;;;3.51;100.00;95168.63;10427159;28;19919;-74
2024/02/15 02:09:57;;;;;;;;;;;;;;;3.39;100.00;95173.03;10427657;28;20391;-76
2024/02/15 02:14:58;;;;;;;;;;;;;;;3.34;100.00;95172.88;10427804;28;20015;-76
2024/02/15 02:19:58;;;;;;;;;;;;;;;3.31;100.00;95176.78;10425813;28;19995;-76
2024/02/15 02:25:06;;;;;;;;;;;;;;;3.42;100.00;95177.94;10427220;28;19913;-75
2024/02/15 02:30:14;;;;;;;;;;;;;;;3.36;100.00;95184.09;10425613;28;19920;-76
2024/02/15 02:35:15;;;;;;;;;;;;;;;3.51;100.00;95189.09;10426830;28;20325;-76
2024/02/15 02:40:16;;;;;;;;;;;;;;;3.47;100.00;95194.00;10426522;28;20310;-76
2024/02/15 02:45:16;;;;;;;;;;;;;;;3.62;100.00;95187.56;10426328;28;19913;-76
2024/02/15 02:50:17;;;;;;;;;;;;;;;3.74;100.00;95191.13;10426361;28;20352;-76
2024/02/15 02:55:18;;;;;;;;;;;;;;;3.56;100.00;95199.91;10425891;28;20023;-76
2024/02/15 03:00:18;;;;;;;;;;;;;;;3.64;100.00;95206.75;10425973;28;19978;-75
2024/02/15 03:05:20;;;;;;;;;;;;;;;3.71;100.00;95204.84;10425997;28;19983;-76
2024/02/15 03:10:20;;;;;;;;;;;;;;;3.60;100.00;95203.75;10407196;28;19940;-76
2024/02/15 03:15:21;;;;;;;;;;;;;;;3.64;100.00;95204.91;10422056;28;19925;-77
2024/02/15 03:20:23;;;;;;;;;;;;;;;3.69;100.00;95206.94;10425394;28;20458;-75
2024/02/15 03:25:24;;;;;;;;;;;;;;;3.76;100.00;95213.81;10425272;28;19935;-76
2024/02/15 03:30:31;;;;;;;;;;;;;;;3.45;100.00;95209.38;10425477;28;19923;-77
2024/02/15 03:35:31;;;;;;;;;;;;;;;2.98;100.00;95219.50;10424701;28;19921;-75
2024/02/15 03:40:32;;;;;;;;;;;;;;;3.10;100.00;95211.66;10423904;28;19912;-75
2024/02/15 03:45:32;;;;;;;;;;;;;;;3.11;100.00;95211.44;10424980;28;19913;-75
2024/02/15 03:50:32;;;;;;;;;;;;;;;3.05;100.00;95212.31;10426000;28;19917;-77
2024/02/15 03:55:33;;;;;;;;;;;;;;;2.99;100.00;95213.97;10415605;28;20400;-75
2024/02/15 04:00:33;;;;;;;;;;;;;;;2.97;100.00;95208.06;10419551;28;20316;-74
2024/02/15 04:05:33;;;;;;;;;;;;;;;2.90;100.00;95200.16;10415102;28;20293;-76
2024/02/15 04:10:34;;;;;;;;;;;;;;;2.96;100.00;95217.06;10405847;28;19920;-76
2024/02/15 04:15:35;;;;;;;;;;;;;;;3.16;100.00;95211.63;10395900;28;19978;-76
2024/02/15 04:20:35;;;;;;;;;;;;;;;3.25;100.00;95225.44;10430747;28;19925;-75
2024/02/15 04:25:35;;;;;;;;;;;;;;;3.20;100.00;95207.50;10416127;28;20029;-77
2024/02/15 04:30:38;;;;;;;;;;;;;;;3.18;100.00;95209.56;10430634;28;19916;-77
2024/02/15 04:35:38;;;;;;;;;;;;;;;3.06;100.00;95217.41;10413611;28;20024;-77
2024/02/15 04:40:39;;;;;;;;;;;;;;;3.00;100.00;95222.75;10431097;28;19917;-77
2024/02/15 04:45:39;;;;;;;;;;;;;;;3.12;100.00;95231.66;10431053;28;20390;-77
2024/02/15 04:50:42;;;;;;;;;;;;;;;3.08;100.00;95231.28;10430414;28;21409;-77
2024/02/15 04:55:43;;;;;;;;;;;;;;;3.21;100.00;95241.00;10430533;28;20360;-76
2024/02/15 05:00:44;;;;;;;;;;;;;;;3.25;100.00;95246.69;10431113;28;19935;-77
2024/02/15 05:05:44;;;;;;;;;;;;;;;3.23;100.00;95254.06;10430910;28;19917;-76
2024/02/15 05:10:45;;;;;;;;;;;;;;;3.06;100.00;95256.44;10413613;28;20383;-76
2024/02/15 05:15:46;;;;;;;;;;;;;;;2.99;100.00;95253.00;10403110;28;19921;-75
2024/02/15 05:20:46;;;;;;;;;;;;;;;2.81;100.00;95267.78;10399522;28;19929;-76
2024/02/15 05:25:46;;;;;;;;;;;;;;;2.80;100.00;95271.44;10405744;28;20304;-75
2024/02/15 05:30:46;;;;;;;;;;;;;;;2.72;100.00;95271.69;10425841;28;19977;-76
2024/02/15 05:35:49;;;;;;;;;;;;;;;2.82;100.00;95285.34;10423191;28;19924;-74
2024/02/15 05:40:50;;;;;;;;;;;;;;;2.94;100.00;95284.66;10423360;28;20537;-74
2024/02/15 05:45:52;;;;;;;;;;;;;;;2.91;100.00;95283.25;10442575;22;20378;-77
2024/02/15 05:50:54;;;;;;;;;;;;;;;3.04;100.00;95279.72;10511969;28;19924;-75
2024/02/15 05:55:54;;;;;;;;;;;;;;;2.91;100.00;95283.25;10505999;28;19976;-80
2024/02/15 06:00:55;;;;;;;;;;;;;;;3.09;100.00;95282.56;10509661;28;19973;-77
2024/02/15 06:05:58;;;;;;;;;;;;;;;3.23;100.00;95301.88;10508024;28;19912;-78
2024/02/15 06:10:58;;;;;;;;;;;;;;;3.31;100.00;95311.44;10523438;28;19965;-76
2024/02/15 06:15:58;;;;;;;;;;;;;;;3.39;100.00;95319.16;10504025;28;19965;-76
2024/02/15 06:20:59;;;;;;;;;;;;;;;3.48;100.00;95317.88;10505445;28;19916;-78
2024/02/15 06:26:02;;;;;;;;;;;;;;;3.55;100.00;95331.94;10505848;28;19916;-76
2024/02/15 06:41:41;;;;;;;;;;;;;;;3.74;100.00;95338.16;10529267;28;20333;-77
2024/02/15 06:46:41;;;;;;;;;;;;;;;3.63;100.00;95346.00;10532866;28;19920;-82
2024/02/15 06:51:41;;;;;;;;;;;;;;;3.75;100.00;95342.47;10543778;28;20369;-80
2024/02/15 06:56:43;;;;;;;;;;;;;;;3.33;100.00;95338.63;10511373;28;19967;-78
2024/02/15 07:01:44;;;;;;;;;;;;;;;2.83;100.00;95332.09;10509391;28;20305;-80
2024/02/15 07:06:47;;;;;;;;;;;;;;;3.23;100.00;95328.44;10507663;28;19922;-76
2024/02/15 07:11:47;;;;;;;;;;;;;;;3.41;100.00;95328.53;10509156;28;20418;-78
2024/02/15 07:16:49;;;;;;;;;;;;;;;4.67;100.00;95327.72;10507542;28;19916;-77
2024/02/15 07:21:50;;;;;;;;;;;;;;;5.40;98.60;95326.06;10508917;28;20389;-80
2024/02/15 07:26:57;;;;;;;;;;;;;;;5.13;100.00;95325.56;10526431;28;19916;-77
2024/02/15 07:31:57;;;;;;;;;;;;;;;5.25;100.00;95323.78;10507026;28;19969;-78
2024/02/15 07:36:57;;;;;;;;;;;;;;;5.30;98.46;95329.25;10525196;28;20378;-76
2024/02/15 07:41:58;;;;;;;;;;;;;;;5.37;98.35;95326.50;10490057;28;19913;-79
2024/02/15 07:47:00;;;;;;;;;;;;;;;6.40;92.92;95313.06;10467574;28;20000;-78
2024/02/15 07:52:00;;;;;;;;;;;;;;;7.51;80.04;95308.66;10505847;28;19977;-79
2024/02/15 07:57:05;;;;;;;;;;;;;;;8.68;74.51;95290.19;10523723;28;19936;-76
2024/02/15 08:02:05;;;;;;;;;;;;;;;8.58;65.13;95297.28;10488105;28;20418;-77
2024/02/15 08:07:08;;;;;;;;;;;;;;;9.01;61.00;95293.81;10504770;28;19926;-76
2024/02/15 08:12:10;;;;;;;;;;;;;;;8.29;67.75;95300.84;10525106;28;19912;-84
2024/02/15 08:17:12;;;;;;;;;;;;;;;9.07;65.62;95298.19;10506920;28;20443;-77
2024/02/15 08:22:12;;;;;;;;;;;;;;;9.26;64.06;95289.81;10524966;28;19923;-77
2024/02/15 08:27:12;;;;;;;;;;;;;;;9.50;61.00;95298.44;10506565;28;19919;-75
2024/02/15 08:32:14;;;;;;;;;;;;;;;9.69;61.02;95290.03;10506543;28;19916;-77
2024/02/15 08:37:14;;;;;;;;;;;;;;;9.26;63.21;95297.88;10508030;28;20435;-81
2024/02/15 08:42:14;;;;;;;;;;;;;;;9.35;62.18;95282.97;10515890;28;19912;-77
2024/02/15 08:47:15;;;;;;;;;;;;;;;8.38;68.30;95287.84;10543606;28;19920;-77
2024/02/15 08:52:17;;;;;;;;;;;;;;;8.76;67.34;95288.16;10514989;28;19920;-78
2024/02/15 08:57:19;;;;;;;;;;;;;;;8.59;66.41;95278.28;10532668;28;20031;-78
2024/02/15 09:02:19;;;;;;;;;;;;;;;9.24;65.38;95279.34;10505944;28;19912;-82
2024/02/15 09:07:21;;;;;;;;;;;;;;;9.26;65.45;95278.31;10504310;28;19912;-78
2024/02/15 09:12:22;;;;;;;;;;;;;;;9.04;66.04;95273.75;10532170;28;19916;-77
2024/02/15 09:17:22;;;;;;;;;;;;;;;9.71;61.97;95271.78;10513793;28;20297;-77
2024/02/15 09:22:23;;;;;;;;;;;;;;;10.07;59.61;95269.41;10530941;28;20392;-78
2024/02/15 09:27:23;;;;;;;;;;;;;;;10.05;61.70;95269.66;10530947;28;19912;-80
2024/02/15 09:32:23;;;;;;;;;;;;;;;9.83;61.22;95267.06;10512173;28;19919;-77
2024/02/15 09:37:24;;;;;;;;;;;;;;;10.70;55.40;95261.53;10513336;28;20234;-84
2024/02/15 09:42:25;;;;;;;;;;;;;;;11.02;54.54;95259.78;10496727;28;19995;-86
2024/02/15 09:47:26;;;;;;;;;;;;;;;11.45;52.11;95252.41;10512752;28;19942;-78
2024/02/15 09:52:31;;;;;;;;;;;;;;;11.79;52.08;95255.44;10529237;28;19920;-78
2024/02/15 09:57:35;;;;;;;;;;;;;;;12.27;48.98;95239.03;10511916;28;20424;-82
2024/02/15 10:02:38;;;;;;;;;;;;;;;13.78;44.90;95231.97;10496475;28;19974;-87
2024/02/15 10:07:44;;;;;;;;;;;;;;;15.43;42.17;95220.31;10507291;28;19923;-79
2024/02/15 10:12:48;;;;;;;;;;;;;;;16.77;36.92;95206.53;10518892;28;19916;-84
2024/02/15 10:17:54;;;;;;;;;;;;;;;19.56;34.12;95196.78;10497067;28;19912;-81
2024/02/15 10:23:00;;;;;;;;;;;;;;;17.93;34.28;95190.78;10510344;28;19973;-77
2024/02/15 10:28:07;;;;;;;;;;;;;;;19.79;32.28;95183.84;10510028;28;20330;-78
2024/02/15 10:33:07;;;;;;;;;;;;;;;21.27;30.80;95167.38;10509402;28;19916;-76
2024/02/15 10:38:09;;;;;;;;;;;;;;;22.39;29.17;95155.88;10511935;28;19912;-81
2024/02/15 10:43:12;;;;;;;;;;;;;;;22.53;28.28;95155.56;10528835;28;19973;-86
2024/02/15 10:48:13;;;;;;;;;;;;;;;23.04;28.26;95144.31;10508951;28;20011;-77
2024/02/15 10:53:22;;;;;;;;;;;;;;;23.21;27.90;95133.13;10528498;28;19928;-78
2024/02/15 10:58:25;;;;;;;;;;;;;;;23.62;26.56;95140.59;10509965;28;20016;-77
2024/02/15 11:03:32;;;;;;;;;;;;;;;19.56;30.12;95141.44;10527979;28;19918;-77
2024/02/15 11:08:32;;;;;;;;;;;;;;;20.61;30.86;95133.91;10526459;28;19919;-77
2024/02/15 11:13:33;;;;;;;;;;;;;;;22.56;28.70;95130.22;10525964;28;19924;-77
2024/02/15 11:19:03;;;;;;;;;;;;;;;22.44;28.26;95124.72;10508026;28;19916;-77
2024/02/15 11:24:22;;;;;;;;;;;;;;;22.46;27.77;95125.19;10512444;28;19912;-79
2024/02/15 11:29:45;;;;;;;;;;;;;;;19.39;30.27;95126.69;10502447;28;19923;-75
2024/02/15 11:34:45;;;;;;;;;;;;;;;19.88;32.06;95123.03;10524270;28;19916;-79
2024/02/15 11:39:46;;;;;;;;;;;;;;;22.11;28.62;95111.84;10524665;28;20413;-82
2024/02/15 11:44:48;;;;;;;;;;;;;;;22.76;28.37;95103.06;10504330;28;19916;-78
2024/02/15 11:49:48;;;;;;;;;;;;;;;23.71;26.76;95109.13;10523341;28;19920;-78
2024/02/15 11:54:49;;;;;;;;;;;;;;;23.15;27.06;95106.28;10500476;28;19932;-78
2024/02/15 12:21:23;;;;;;;;;;;;;;;11.77;47.79;95122.94;10520343;28;19912;-76
2024/02/15 12:26:23;;;;;;;;;;;;;;;11.88;47.34;95125.63;10482846;28;19912;-77
2024/02/15 12:31:28;;;;;;;;;;;;;;;11.74;48.35;95112.69;10495319;28;19912;-81
2024/02/15 12:36:29;;;;;;;;;;;;;;;11.20;50.60;95111.34;10514225;28;20359;-78
2024/02/15 12:41:30;;;;;;;;;;;;;;;11.18;52.88;95112.72;10514748;28;19967;-79
2024/02/15 12:46:31;;;;;;;;;;;;;;;11.03;53.36;95114.28;10497229;28;19920;-82
2024/02/15 12:51:31;;;;;;;;;;;;;;;10.89;54.00;95097.06;10514645;28;19920;-76
2024/02/15 12:56:31;;;;;;;;;;;;;;;10.78;55.99;95093.53;10534279;28;19926;-78
2024/02/15 13:01:32;;;;;;;;;;;;;;;11.14;56.25;95098.19;10514619;28;19920;-78
2024/02/15 13:06:34;;;;;;;;;;;;;;;11.46;51.51;95095.22;10510945;28;19942;-81
2024/02/15 13:11:35;;;;;;;;;;;;;;;11.59;51.22;95096.56;10503091;28;20398;-77
2024/02/15 13:16:36;;;;;;;;;;;;;;;10.94;51.23;95097.09;10511631;28;19916;-84
2024/02/15 13:21:37;;;;;;;;;;;;;;;10.19;56.27;95105.41;10479882;28;19912;-81
2024/02/15 13:26:37;;;;;;;;;;;;;;;10.55;55.60;95108.28;10470552;28;20892;-84
2024/02/15 13:31:37;;;;;;;;;;;;;;;10.77;56.78;95097.28;10484937;28;19916;-77
2024/02/15 13:36:37;;;;;;;;;;;;;;;11.05;53.13;95089.81;10471191;28;20315;-76
2024/02/15 13:41:38;;;;;;;;;;;;;;;11.34;52.59;95089.31;10470790;28;19916;-79
2024/02/15 13:46:39;;;;;;;;;;;;;;;11.37;52.61;95088.75;10474642;28;19934;-77
2024/02/15 13:51:39;;;;;;;;;;;;;;;10.71;55.98;95092.97;10529998;28;19916;-78
2024/02/15 13:56:39;;;;;;;;;;;;;;;10.77;57.24;95083.84;10511384;28;19976;-77
2024/02/15 14:01:45;;;;;;;;;;;;;;;11.03;54.97;95084.72;10511406;28;19916;-77
2024/02/15 14:06:45;;;;;;;;;;;;;;;10.99;53.26;95091.69;10527786;28;19934;-80
2024/02/15 14:11:45;;;;;;;;;;;;;;;11.06;51.90;95089.53;10509875;28;19923;-81
2024/02/15 14:16:47;;;;;;;;;;;;;;;10.70;54.09;95085.97;10528215;28;19916;-78
2024/02/15 14:21:47;;;;;;;;;;;;;;;10.73;54.86;95093.50;10503451;28;19955;-77
2024/02/15 14:26:49;;;;;;;;;;;;;;;10.62;55.25;95095.38;10510720;28;20306;-84
2024/02/15 14:37:11;;;;;;;;;;;;;;;10.29;58.44;95099.25;10529220;28;19920;-81
2024/02/15 14:42:12;;;;;;;;;;;;;;;10.24;58.00;95097.34;10481862;28;20387;-83
2024/02/15 14:47:12;;;;;;;;;;;;;;;9.92;58.22;95103.63;10469067;28;19932;-82
2024/02/15 14:52:14;;;;;;;;;;;;;;;9.54;63.48;95100.16;10466788;28;19916;-82
2024/02/15 14:57:14;;;;;;;;;;;;;;;9.86;62.81;95096.63;10455529;28;20012;-85
2024/02/15 15:02:15;;;;;;;;;;;;;;;9.87;60.86;95101.72;10473449;28;19913;-81
2024/02/15 15:12:40;;;;;;;;;;;;;;;10.00;67.26;95102.34;10506686;28;20278;-83
2024/02/15 15:17:40;;;;;;;;;;;;;;;9.67;64.46;95102.41;10526173;28;19922;-80
2024/02/15 15:22:40;;;;;;;;;;;;;;;9.06;67.70;95116.13;10502338;28;20004;-82
2024/02/15 15:27:40;;;;;;;;;;;;;;;8.86;72.11;95122.09;10494380;28;20291;-85
2024/02/15 15:32:40;;;;;;;;;;;;;;;8.69;76.05;95119.50;10505807;28;19916;-81
2024/02/15 15:37:41;;;;;;;;;;;;;;;8.66;74.06;95114.66;10499019;28;19917;-82
2024/02/15 15:42:41;;;;;;;;;;;;;;;8.58;73.96;95129.28;10494118;28;19913;-84
2024/02/15 15:47:42;;;;;;;;;;;;;;;8.65;76.62;95132.59;10531263;28;20026;-82
2024/02/15 15:52:44;;;;;;;;;;;;;;;8.57;75.19;95138.41;10546326;28;19916;-82
2024/02/15 15:57:46;;;;;;;;;;;;;;;8.55;77.70;95143.19;10542829;28;20386;-84
2024/02/15 16:02:46;;;;;;;;;;;;;;;8.42;80.29;95147.03;10504170;28;20620;-81
2024/02/15 16:07:47;;;;;;;;;;;;;;;8.76;79.59;95164.88;10517374;28;19912;-83
2024/02/15 16:12:47;;;;;;;;;;;;;;;8.77;77.81;95161.13;10517612;28;19912;-83
2024/02/15 16:17:48;;;;;;;;;;;;;;;8.72;77.51;95173.41;10507791;28;20037;-83
2024/02/15 16:22:51;;;;;;;;;;;;;;;8.81;73.80;95184.50;10509707;28;19912;-85
2024/02/15 16:27:55;;;;;;;;;;;;;;;8.75;73.31;95182.00;10494421;28;19973;-83
2024/02/15 16:32:55;;;;;;;;;;;;;;;8.63;73.79;95185.63;10529808;28;19994;-81
2024/02/15 16:37:55;;;;;;;;;;;;;;;8.60;74.58;95199.53;10518434;28;20007;-83
2024/02/15 16:42:57;;;;;;;;;;;;;;;8.57;75.07;95202.69;10538306;28;20381;-83
2024/02/15 16:48:00;;;;;;;;;;;;;;;8.42;73.48;95202.47;10501949;28;19928;-80
2024/02/15 16:53:01;;;;;;;;;;;;;;;8.33;74.32;95216.28;10515883;28;20885;-82
2024/02/15 16:58:07;;;;;;;;;;;;;;;8.18;75.55;95208.03;10498339;28;19946;-84
2024/02/15 17:03:08;;;;;;;;;;;;;;;8.05;76.90;95222.56;10514850;28;19948;-86
2024/02/15 17:08:09;;;;;;;;;;;;;;;7.88;77.85;95225.25;10514075;28;20002;-81
2024/02/15 17:13:09;;;;;;;;;;;;;;;7.88;79.12;95222.56;10501384;28;19916;-80
2024/02/15 17:18:11;;;;;;;;;;;;;;;7.74;79.87;95232.00;10535032;28;19916;-84
2024/02/15 17:23:12;;;;;;;;;;;;;;;7.63;81.71;95245.22;10516752;28;20402;-91
2024/02/15 17:28:12;;;;;;;;;;;;;;;7.50;84.40;95240.16;10502517;28;19920;-84
2024/02/15 17:33:13;;;;;;;;;;;;;;;7.43;85.44;95245.66;10517567;28;19924;-81
2024/02/15 17:38:15;;;;;;;;;;;;;;;7.32;85.31;95251.88;10510355;28;19973;-82
2024/02/15 17:43:15;;;;;;;;;;;;;;;7.17;86.67;95257.72;10513991;28;19916;-85
2024/02/15 17:48:24;;;;;;;;;;;;;;;7.07;89.77;95263.69;10512481;28;19920;-89
2024/02/15 17:53:24;;;;;;;;;;;;;;;6.96;92.00;95261.88;10505009;28;20419;-77
2024/02/15 17:58:25;;;;;;;;;;;;;;;6.76;93.15;95262.28;10506234;28;19973;-78
2024/02/15 18:03:25;;;;;;;;;;;;;;;6.79;92.44;95267.94;10524262;28;19959;-77
2024/02/15 18:08:27;;;;;;;;;;;;;;;6.54;94.31;95270.91;10452220;28;19928;-83
2024/02/15 18:13:28;;;;;;;;;;;;;;;6.52;95.91;95270.34;10476626;28;20500;-80
2024/02/15 18:18:30;;;;;;;;;;;;;;;6.48;95.65;95283.31;10478542;28;19920;-82
2024/02/15 18:23:31;;;;;;;;;;;;;;;6.37;97.09;95281.47;10451738;28;19916;-78
2024/02/15 18:28:31;;;;;;;;;;;;;;;6.20;98.63;95284.03;10453848;28;19912;-77
2024/02/15 18:33:38;;;;;;;;;;;;;;;6.18;99.33;95291.44;10452628;28;19925;-78
2024/02/15 18:38:41;;;;;;;;;;;;;;;6.05;100.00;95289.03;10453767;28;19916;-78
2024/02/15 18:43:41;;;;;;;;;;;;;;;5.90;100.00;95295.59;10454484;28;20374;-77
2024/02/15 18:48:41;;;;;;;;;;;;;;;5.87;100.00;95304.03;10469851;28;19935;-80
2024/02/15 18:53:41;;;;;;;;;;;;;;;5.78;100.00;95300.09;10454049;28;20559;-79
2024/02/15 18:58:42;;;;;;;;;;;;;;;5.83;100.00;95297.53;10477910;28;20394;-79
2024/02/15 19:03:42;;;;;;;;;;;;;;;5.59;100.00;95307.34;10459538;28;19974;-77
2024/02/15 19:08:42;;;;;;;;;;;;;;;5.33;100.00;95311.19;10478584;28;19943;-78
2024/02/15 19:13:42;;;;;;;;;;;;;;;5.09;100.00;95308.41;10459747;28;20015;-78
2024/02/15 19:18:43;;;;;;;;;;;;;;;5.01;100.00;95298.06;10476916;28;19916;-79
2024/02/15 19:23:45;;;;;;;;;;;;;;;5.03;100.00;95311.97;10477425;28;19916;-77
2024/02/15 19:28:47;;;;;;;;;;;;;;;4.97;100.00;95308.38;10476808;28;19963;-79
2024/02/15 19:33:48;;;;;;;;;;;;;;;4.99;100.00;95308.13;10455151;28;19920;-78
2024/02/15 19:38:48;;;;;;;;;;;;;;;4.95;100.00;95305.94;10458132;28;19913;-79
2024/02/15 19:43:55;;;;;;;;;;;;;;;4.87;100.00;95314.22;10476309;28;19920;-79
2024/02/15 19:48:55;;;;;;;;;;;;;;;4.68;100.00;95318.72;10475586;28;19921;-77
2024/02/15 19:53:55;;;;;;;;;;;;;;;4.71;100.00;95320.94;10457616;28;19924;-77
2024/02/15 19:58:56;;;;;;;;;;;;;;;4.65;100.00;95318.34;10457560;28;19913;-79
2024/02/15 20:03:57;;;;;;;;;;;;;;;4.66;100.00;95319.97;10460953;28;19916;-86
2024/02/15 20:09:02;;;;;;;;;;;;;;;4.59;100.00;95318.19;10465450;28;19959;-82
2024/02/15 20:14:04;;;;;;;;;;;;;;;4.62;100.00;95325.75;10488122;28;19920;-79
2024/02/15 20:19:04;;;;;;;;;;;;;;;4.57;100.00;95330.09;10455999;28;19916;-84
2024/02/15 20:24:05;;;;;;;;;;;;;;;4.45;100.00;95335.31;10461220;28;19920;-77
2024/02/15 20:29:05;;;;;;;;;;;;;;;4.53;100.00;95328.91;10476653;28;19920;-79
2024/02/15 20:34:05;;;;;;;;;;;;;;;4.35;100.00;95335.81;10459589;28;20015;-79
2024/02/15 20:39:06;;;;;;;;;;;;;;;4.21;100.00;95334.31;10464299;28;19912;-77
2024/02/15 20:44:08;;;;;;;;;;;;;;;4.33;100.00;95329.13;10464814;28;19913;-79
2024/02/15 20:49:08;;;;;;;;;;;;;;;4.31;100.00;95321.31;10464653;28;19929;-80
2024/02/15 20:54:09;;;;;;;;;;;;;;;4.20;100.00;95330.03;10461373;28;19986;-79
2024/02/15 20:59:09;;;;;;;;;;;;;;;4.03;100.00;95330.59;10461789;28;20157;-78
2024/02/15 21:04:12;;;;;;;;;;;;;;;3.92;100.00;95329.44;10466041;28;20295;-82
2024/02/15 21:09:13;;;;;;;;;;;;;;;3.92;100.00;95332.09;10484570;28;19920;-82
2024/02/15 21:14:16;;;;;;;;;;;;;;;3.79;100.00;95334.03;10458291;28;20163;-83
2024/02/15 21:19:16;;;;;;;;;;;;;;;3.67;100.00;95332.09;10478566;28;19920;-78
2024/02/15 21:24:16;;;;;;;;;;;;;;;3.59;100.00;95335.81;10486335;28;19919;-82
2024/02/15 21:29:17;;;;;;;;;;;;;;;3.62;100.00;95336.41;10463270;28;20003;-84
2024/02/15 21:34:17;;;;;;;;;;;;;;;3.43;100.00;95336.31;10462914;28;19921;-78
2024/02/15 21:39:22;;;;;;;;;;;;;;;3.49;100.00;95332.81;10462785;28;20397;-81
2024/02/15 21:44:22;;;;;;;;;;;;;;;3.32;100.00;95334.31;10461081;28;19920;-79
2024/02/15 21:49:24;;;;;;;;;;;;;;;3.22;100.00;95335.63;10462004;28;20413;-83
2024/02/15 21:54:24;;;;;;;;;;;;;;;3.13;100.00;95336.88;10480283;28;19921;-79
2024/02/15 21:59:25;;;;;;;;;;;;;;;3.03;100.00;95334.66;10460503;28;20367;-84
2024/02/15 22:04:25;;;;;;;;;;;;;;;2.86;100.00;95330.84;10461159;28;19913;-80
2024/02/15 22:09:25;;;;;;;;;;;;;;;2.65;100.00;95337.25;10484631;28;19977;-80
2024/02/15 22:14:27;;;;;;;;;;;;;;;2.54;100.00;95336.88;10464738;28;19973;-80
2024/02/15 22:19:27;;;;;;;;;;;;;;;2.51;100.00;95328.50;10465710;28;19912;-78
2024/02/15 22:24:27;;;;;;;;;;;;;;;2.45;100.00;95343.41;10486504;28;19912;-79
2024/02/15 22:29:28;;;;;;;;;;;;;;;2.50;100.00;95340.16;10479897;28;20010;-79
2024/02/15 22:34:28;;;;;;;;;;;;;;;2.62;100.00;95335.00;10461937;28;19923;-76
2024/02/15 22:39:29;;;;;;;;;;;;;;;2.63;100.00;95334.78;10461978;28;19996;-78
2024/02/15 22:44:29;;;;;;;;;;;;;;;2.89;100.00;95331.25;10459430;28;19913;-78
2024/02/15 22:49:30;;;;;;;;;;;;;;;2.88;100.00;95326.16;10480744;28;20433;-78
2024/02/15 22:54:31;;;;;;;;;;;;;;;2.80;100.00;95329.03;10461663;28;19927;-78
2024/02/15 22:59:31;;;;;;;;;;;;;;;2.94;100.00;95330.59;10461129;28;19913;-83
2024/02/15 23:04:34;;;;;;;;;;;;;;;2.93;100.00;95328.16;10444691;28;19924;-84
2024/02/15 23:09:34;;;;;;;;;;;;;;;2.88;100.00;95326.16;10461036;28;19916;-78
2024/02/15 23:14:35;;;;;;;;;;;;;;;3.02;100.00;95324.25;10440287;28;19917;-79
2024/02/15 23:19:37;;;;;;;;;;;;;;;3.04;100.00;95325.69;10441538;28;20530;-79
2024/02/15 23:24:37;;;;;;;;;;;;;;;3.12;100.00;95334.44;10488402;28;20401;-78
2024/02/15 23:29:38;;;;;;;;;;;;;;;3.17;100.00;95324.00;10457519;28;19912;-79
2024/02/15 23:34:39;;;;;;;;;;;;;;;3.14;100.00;95335.84;10457152;28;19997;-82
2024/02/15 23:45:00;;;;;;;;;;;;;;;2.98;100.00;95338.97;10465934;28;20418;-83
2024/02/15 23:50:02;;;;;;;;;;;;;;;3.03;100.00;95339.19;10477264;28;19921;-84
2024/02/15 23:55:03;;;;;;;;;;;;;;;2.86;100.00;95336.97;10457749;28;19925;-84
